Salineville, Ohio
Current Conditions -  °F | °C
As of 10:53 AM on Sunday 23 Nov 2014 (Local Time) from KPHD Reporting Station
Scattered Clouds Scattered Clouds  
Wind Chill: 54°   Ceiling: Unl
Heat Index: 54°   Visibility: 10mi
Dew Point: 35°   Wind: 5mph
Humidity: 49%   Direction: 130°SE
Pressure: 30.03"   Gusts: NA
Location:  40.62°N, 80.84°W
Report Text: KPHD 231553Z AUTO 13004KT 10SM SCT055 12/02 A3003 RMK AO2 SLP169 T01220017
Loading
Personal Weather Stations






























Interactive Weather Map New forecast layout! Learn more

10-Day Weather Forecast

Advertisements
Track Severe Weather on mobile